^^
Saratoga-Weather Station Historical Data
 
Daily Summary for February 28, 2020 Units:  Metric    English   Both

Notice: Undefined index: PHPSELF in C:\OpenGrADS\Contents\tmp\WU-History-inc.php on line 388
Daily Weekly Monthly Yearly Custom
  Current: High: Low: Average:
Temperature: 6.7 °C 6.7 °C 2.9 °C 4.4 °C
Dew Point: 2.0 °C 2.7 °C 0.6 °C 1.6 °C
Humidity: 72% 89% 71% 83%
Wind Speed: 29.6km/h 29.6km/h 9.3km/h 14.8km/h
Wind Gust: 29.6km/h 29.6km/h - -
WindSouth - - SW
Pressure: 1012.6 hPa 1015.4 hPa 1010.1 hPa -
Precipitation: 0.2 mm      
Historical Graphs
 
 
Tabular Data for February 28, 2020
Time Temperature Dew Point Pressure Wind Wind Speed Wind Gust Humidity Rainfall Rate (Hourly) solar
00:00 4.8 °C 0.9 °C 1010.1 hPa WNW 22.2 km/h 22.2 km/h 76% 0.0 mm 0.00 W/m2
00:05 4.8 °C 0.9 °C 1010.2 hPa WNW 18.5 km/h 18.5 km/h 76% 0.0 mm 0.00 W/m2
00:10 4.8 °C 0.9 °C 1010.3 hPa WNW 18.5 km/h 18.5 km/h 76% 0.0 mm 0.00 W/m2
00:15 4.8 °C 0.8 °C 1010.5 hPa WNW 18.5 km/h 18.5 km/h 75% 0.0 mm 0.00 W/m2
00:20 4.9 °C 0.8 °C 1010.7 hPa WNW 18.5 km/h 18.5 km/h 75% 0.0 mm 0.00 W/m2
00:25 4.8 °C 1.1 °C 1010.8 hPa WNW 18.5 km/h 18.5 km/h 77% 0.0 mm 0.00 W/m2
00:30 4.6 °C 1.2 °C 1010.9 hPa WNW 18.5 km/h 18.5 km/h 79% 0.0 mm 0.00 W/m2
00:35 4.4 °C 1.4 °C 1011.0 hPa NNW 13.0 km/h 13.0 km/h 81% 0.0 mm 0.00 W/m2
00:40 4.2 °C 1.4 °C 1011.0 hPa NNW 13.0 km/h 13.0 km/h 82% 0.0 mm 0.00 W/m2
00:45 4.1 °C 1.5 °C 1011.2 hPa NNW 13.0 km/h 13.0 km/h 83% 0.2 mm 0.00 W/m2
00:50 4.0 °C 1.6 °C 1011.2 hPa NNW 13.0 km/h 13.0 km/h 84% 0.2 mm 0.00 W/m2
00:55 3.9 °C 1.7 °C 1011.3 hPa NNW 13.0 km/h 13.0 km/h 85% 0.2 mm 0.00 W/m2
01:00 3.9 °C 1.7 °C 1011.4 hPa NNW 13.0 km/h 13.0 km/h 85% 0.2 mm 0.00 W/m2
01:05 4.1 °C 1.8 °C 1011.5 hPa West 14.8 km/h 14.8 km/h 85% 0.2 mm 0.00 W/m2
01:10 4.3 °C 1.8 °C 1011.6 hPa West 14.8 km/h 14.8 km/h 84% 0.2 mm 0.00 W/m2
01:15 4.6 °C 1.9 °C 1011.6 hPa West 14.8 km/h 14.8 km/h 83% 0.2 mm 0.00 W/m2
01:20 4.7 °C 1.8 °C 1011.6 hPa West 14.8 km/h 14.8 km/h 82% 0.2 mm 0.00 W/m2
01:25 4.8 °C 1.8 °C 1011.6 hPa West 14.8 km/h 14.8 km/h 81% 0.2 mm 0.00 W/m2
01:30 4.9 °C 1.7 °C 1011.8 hPa West 14.8 km/h 14.8 km/h 80% 0.2 mm 0.00 W/m2
01:35 4.9 °C 1.6 °C 1011.8 hPa WNW 18.5 km/h 18.5 km/h 79% 0.2 mm 0.00 W/m2
01:40 4.9 °C 1.4 °C 1011.9 hPa WNW 18.5 km/h 18.5 km/h 78% 0.2 mm 0.00 W/m2
01:45 4.9 °C 1.4 °C 1012.0 hPa WNW 18.5 km/h 18.5 km/h 78% 0.0 mm 0.00 W/m2
01:50 4.9 °C 1.4 °C 1012.1 hPa WNW 18.5 km/h 18.5 km/h 78% 0.0 mm 0.00 W/m2
01:55 4.8 °C 1.3 °C 1012.1 hPa WNW 18.5 km/h 18.5 km/h 78% 0.0 mm 0.00 W/m2
02:00 4.9 °C 1.6 °C 1012.2 hPa WNW 18.5 km/h 18.5 km/h 79% 0.0 mm 0.00 W/m2
02:05 4.8 °C 1.5 °C 1012.3 hPa West 13.0 km/h 13.0 km/h 79% 0.0 mm 0.00 W/m2
02:10 4.8 °C 1.4 °C 1012.3 hPa West 13.0 km/h 13.0 km/h 79% 0.0 mm 0.00 W/m2
02:15 4.8 °C 1.6 °C 1012.3 hPa West 13.0 km/h 13.0 km/h 80% 0.0 mm 0.00 W/m2
02:20 4.7 °C 1.6 °C 1012.4 hPa West 13.0 km/h 13.0 km/h 80% 0.0 mm 0.00 W/m2
02:25 4.7 °C 1.5 °C 1012.5 hPa West 13.0 km/h 13.0 km/h 80% 0.0 mm 0.00 W/m2
02:30 4.7 °C 1.6 °C 1012.6 hPa West 13.0 km/h 13.0 km/h 80% 0.0 mm 0.00 W/m2
02:35 4.8 °C 1.6 °C 1012.6 hPa West 13.0 km/h 13.0 km/h 80% 0.0 mm 0.00 W/m2
02:40 4.8 °C 1.6 °C 1012.7 hPa West 13.0 km/h 13.0 km/h 80% 0.0 mm 0.00 W/m2
02:45 4.8 °C 1.6 °C 1012.7 hPa West 13.0 km/h 13.0 km/h 80% 0.0 mm 0.00 W/m2
02:50 4.7 °C 1.6 °C 1012.7 hPa West 13.0 km/h 13.0 km/h 80% 0.0 mm 0.00 W/m2
02:55 4.8 °C 1.6 °C 1012.8 hPa West 13.0 km/h 13.0 km/h 80% 0.0 mm 0.00 W/m2
03:00 4.8 °C 1.7 °C 1012.9 hPa West 13.0 km/h 13.0 km/h 80% 0.0 mm 0.00 W/m2
03:05 4.8 °C 1.7 °C 1013.1 hPa West 14.8 km/h 14.8 km/h 80% 0.0 mm 0.00 W/m2
03:10 4.9 °C 1.7 °C 1013.2 hPa West 14.8 km/h 14.8 km/h 80% 0.0 mm 0.00 W/m2
03:15 4.8 °C 1.5 °C 1013.2 hPa West 14.8 km/h 14.8 km/h 79% 0.0 mm 0.00 W/m2
03:20 4.8 °C 1.6 °C 1013.2 hPa West 14.8 km/h 14.8 km/h 80% 0.0 mm 0.00 W/m2
03:25 4.8 °C 1.6 °C 1013.3 hPa West 14.8 km/h 14.8 km/h 80% 0.0 mm 0.00 W/m2
03:30 4.7 °C 1.6 °C 1013.3 hPa West 14.8 km/h 14.8 km/h 80% 0.0 mm 0.00 W/m2
03:35 4.7 °C 1.7 °C 1013.3 hPa West 13.0 km/h 13.0 km/h 81% 0.0 mm 0.00 W/m2
03:40 4.7 °C 1.7 °C 1013.4 hPa West 13.0 km/h 13.0 km/h 81% 0.0 mm 0.00 W/m2
03:45 4.7 °C 1.7 °C 1013.5 hPa West 13.0 km/h 13.0 km/h 81% 0.0 mm 0.00 W/m2
03:50 4.7 °C 1.6 °C 1013.5 hPa West 13.0 km/h 13.0 km/h 80% 0.0 mm 0.00 W/m2
03:55 4.7 °C 1.6 °C 1013.5 hPa West 13.0 km/h 13.0 km/h 80% 0.0 mm 0.00 W/m2
04:00 4.7 °C 1.5 °C 1013.5 hPa West 13.0 km/h 13.0 km/h 80% 0.0 mm 0.00 W/m2
04:05 4.6 °C 1.6 °C 1013.4 hPa West 13.0 km/h 13.0 km/h 81% 0.0 mm 0.00 W/m2
04:10 4.5 °C 1.5 °C 1013.4 hPa West 13.0 km/h 13.0 km/h 81% 0.0 mm 0.00 W/m2
04:15 4.4 °C 1.4 °C 1013.4 hPa West 13.0 km/h 13.0 km/h 81% 0.0 mm 0.00 W/m2
04:20 4.4 °C 1.4 °C 1013.5 hPa West 13.0 km/h 13.0 km/h 81% 0.0 mm 0.00 W/m2
04:25 4.3 °C 1.5 °C 1013.7 hPa West 13.0 km/h 13.0 km/h 82% 0.0 mm 0.00 W/m2
04:30 4.2 °C 1.4 °C 1013.8 hPa West 13.0 km/h 13.0 km/h 82% 0.0 mm 0.00 W/m2
04:35 4.2 °C 1.4 °C 1013.8 hPa West 13.0 km/h 13.0 km/h 82% 0.0 mm 0.00 W/m2
04:40 4.2 °C 1.4 °C 1013.9 hPa West 13.0 km/h 13.0 km/h 82% 0.0 mm 0.00 W/m2
04:45 4.2 °C 1.4 °C 1014.0 hPa West 13.0 km/h 13.0 km/h 82% 0.0 mm 0.00 W/m2
04:50 4.2 °C 1.4 °C 1014.1 hPa West 13.0 km/h 13.0 km/h 82% 0.0 mm 0.00 W/m2
04:55 4.1 °C 1.3 °C 1014.1 hPa West 13.0 km/h 13.0 km/h 82% 0.0 mm 0.00 W/m2
05:00 4.1 °C 1.3 °C 1014.1 hPa West 13.0 km/h 13.0 km/h 82% 0.0 mm 0.00 W/m2
05:05 4.0 °C 1.2 °C 1014.2 hPa WSW 11.1 km/h 11.1 km/h 82% 0.0 mm 0.00 W/m2
05:10 3.9 °C 1.2 °C 1014.2 hPa WSW 11.1 km/h 11.1 km/h 82% 0.0 mm 0.00 W/m2
05:15 3.9 °C 1.3 °C 1014.2 hPa WSW 11.1 km/h 11.1 km/h 83% 0.0 mm 0.00 W/m2
05:20 3.8 °C 1.2 °C 1014.2 hPa WSW 11.1 km/h 11.1 km/h 83% 0.0 mm 0.00 W/m2
05:25 3.8 °C 1.2 °C 1014.3 hPa WSW 11.1 km/h 11.1 km/h 83% 0.0 mm 0.00 W/m2
05:30 3.7 °C 1.1 °C 1014.3 hPa WSW 11.1 km/h 11.1 km/h 83% 0.0 mm 0.00 W/m2
05:35 3.6 °C 0.9 °C 1014.4 hPa WSW 11.1 km/h 11.1 km/h 83% 0.0 mm 0.00 W/m2
05:40 3.4 °C 0.9 °C 1014.4 hPa WSW 11.1 km/h 11.1 km/h 84% 0.0 mm 0.00 W/m2
05:45 3.3 °C 0.8 °C 1014.5 hPa WSW 11.1 km/h 11.1 km/h 84% 0.0 mm 0.00 W/m2
05:50 3.1 °C 0.8 °C 1014.5 hPa WSW 11.1 km/h 11.1 km/h 85% 0.0 mm 0.00 W/m2
05:55 3.0 °C 0.7 °C 1014.5 hPa WSW 11.1 km/h 11.1 km/h 85% 0.0 mm 0.00 W/m2
06:00 2.9 °C 0.6 °C 1014.5 hPa WSW 11.1 km/h 11.1 km/h 85% 0.0 mm 0.00 W/m2
06:05 2.9 °C 0.6 °C 1014.5 hPa SW 9.3 km/h 9.3 km/h 85% 0.0 mm 0.00 W/m2
06:10 2.9 °C 0.8 °C 1014.6 hPa SW 9.3 km/h 9.3 km/h 86% 0.0 mm 0.00 W/m2
06:15 2.9 °C 0.8 °C 1014.6 hPa SW 9.3 km/h 9.3 km/h 86% 0.0 mm 0.00 W/m2
06:20 3.0 °C 0.9 °C 1014.6 hPa SW 9.3 km/h 9.3 km/h 86% 0.0 mm 0.00 W/m2
06:25 3.0 °C 0.9 °C 1014.6 hPa SW 9.3 km/h 9.3 km/h 86% 0.0 mm 0.00 W/m2
06:30 3.0 °C 0.9 °C 1014.6 hPa SW 9.3 km/h 9.3 km/h 86% 0.0 mm 0.00 W/m2
06:35 3.1 °C 0.9 °C 1014.7 hPa SW 9.3 km/h 9.3 km/h 86% 0.0 mm 0.00 W/m2
06:40 3.1 °C 1.0 °C 1014.7 hPa SW 9.3 km/h 9.3 km/h 86% 0.0 mm 0.00 W/m2
06:45 3.2 °C 1.1 °C 1014.8 hPa SW 9.3 km/h 9.3 km/h 86% 0.0 mm 0.00 W/m2
06:50 3.2 °C 1.1 °C 1014.9 hPa SW 9.3 km/h 9.3 km/h 86% 0.0 mm 0.00 W/m2
06:55 3.2 °C 1.1 °C 1015.0 hPa SW 9.3 km/h 9.3 km/h 86% 0.0 mm 0.00 W/m2
07:00 3.2 °C 1.1 °C 1015.0 hPa SW 9.3 km/h 9.3 km/h 86% 0.0 mm 0.00 W/m2
07:05 3.1 °C 1.2 °C 1015.1 hPa SW 13.0 km/h 13.0 km/h 87% 0.0 mm 0.00 W/m2
07:10 3.1 °C 1.1 °C 1015.0 hPa SW 13.0 km/h 13.0 km/h 87% 0.0 mm 0.00 W/m2
07:15 3.1 °C 1.1 °C 1015.0 hPa SW 13.0 km/h 13.0 km/h 87% 0.0 mm 0.00 W/m2
07:20 3.0 °C 1.2 °C 1015.1 hPa SW 13.0 km/h 13.0 km/h 88% 0.0 mm 0.00 W/m2
07:25 2.9 °C 1.2 °C 1015.1 hPa SW 13.0 km/h 13.0 km/h 88% 0.0 mm 0.00 W/m2
07:30 3.0 °C 1.2 °C 1015.1 hPa SW 13.0 km/h 13.0 km/h 88% 0.0 mm 5.00 W/m2
07:35 3.1 °C 1.3 °C 1015.1 hPa SW 13.0 km/h 13.0 km/h 88% 0.0 mm 5.00 W/m2
07:40 3.1 °C 1.3 °C 1015.1 hPa SW 13.0 km/h 13.0 km/h 88% 0.0 mm 9.00 W/m2
07:45 3.1 °C 1.3 °C 1015.1 hPa SW 13.0 km/h 13.0 km/h 88% 0.0 mm 11.00 W/m2
07:50 3.1 °C 1.3 °C 1015.1 hPa SW 13.0 km/h 13.0 km/h 88% 0.0 mm 12.00 W/m2
07:55 3.0 °C 1.2 °C 1015.1 hPa SW 13.0 km/h 13.0 km/h 88% 0.0 mm 16.00 W/m2
08:00 3.0 °C 1.2 °C 1015.1 hPa SW 13.0 km/h 13.0 km/h 88% 0.0 mm 19.00 W/m2
08:05 2.9 °C 1.2 °C 1015.1 hPa SW 13.0 km/h 13.0 km/h 88% 0.0 mm 25.00 W/m2
08:10 2.9 °C 1.3 °C 1015.0 hPa SW 13.0 km/h 13.0 km/h 89% 0.0 mm 26.00 W/m2
08:15 3.0 °C 1.4 °C 1015.0 hPa SW 13.0 km/h 13.0 km/h 89% 0.0 mm 30.00 W/m2
08:20 3.1 °C 1.4 °C 1015.0 hPa SW 13.0 km/h 13.0 km/h 89% 0.0 mm 35.00 W/m2
08:25 3.1 °C 1.5 °C 1015.1 hPa SW 13.0 km/h 13.0 km/h 89% 0.0 mm 37.00 W/m2
08:30 3.2 °C 1.6 °C 1015.0 hPa SW 13.0 km/h 13.0 km/h 89% 0.0 mm 40.00 W/m2
08:35 3.3 °C 1.7 °C 1015.1 hPa SSW 11.1 km/h 11.1 km/h 89% 0.0 mm 46.00 W/m2
08:40 3.4 °C 1.8 °C 1015.1 hPa SSW 11.1 km/h 11.1 km/h 89% 0.0 mm 51.00 W/m2
08:45 3.5 °C 1.8 °C 1015.1 hPa SSW 11.1 km/h 11.1 km/h 89% 0.0 mm 54.00 W/m2
08:50 3.5 °C 1.7 °C 1015.2 hPa SSW 11.1 km/h 11.1 km/h 88% 0.0 mm 56.00 W/m2
08:55 3.5 °C 1.7 °C 1015.2 hPa SSW 11.1 km/h 11.1 km/h 88% 0.0 mm 58.00 W/m2
09:00 3.6 °C 1.8 °C 1015.1 hPa SSW 11.1 km/h 11.1 km/h 88% 0.0 mm 63.00 W/m2
09:05 3.6 °C 1.8 °C 1015.1 hPa South 13.0 km/h 13.0 km/h 88% 0.0 mm 67.00 W/m2
09:10 3.6 °C 1.8 °C 1015.1 hPa South 13.0 km/h 13.0 km/h 88% 0.0 mm 74.00 W/m2
09:15 3.6 °C 1.8 °C 1015.1 hPa South 13.0 km/h 13.0 km/h 88% 0.0 mm 77.00 W/m2
09:20 3.7 °C 1.9 °C 1015.2 hPa South 13.0 km/h 13.0 km/h 88% 0.0 mm 81.00 W/m2
09:25 3.7 °C 1.9 °C 1015.2 hPa South 13.0 km/h 13.0 km/h 88% 0.0 mm 86.00 W/m2
09:30 3.8 °C 2.0 °C 1015.1 hPa South 13.0 km/h 13.0 km/h 88% 0.0 mm 100.00 W/m2
09:35 3.8 °C 2.0 °C 1015.2 hPa South 11.1 km/h 11.1 km/h 88% 0.0 mm 98.00 W/m2
09:40 3.9 °C 2.1 °C 1015.3 hPa South 11.1 km/h 11.1 km/h 88% 0.0 mm 102.00 W/m2
09:45 4.0 °C 2.2 °C 1015.4 hPa South 11.1 km/h 11.1 km/h 88% 0.0 mm 104.00 W/m2
09:50 4.1 °C 2.3 °C 1015.3 hPa South 11.1 km/h 11.1 km/h 88% 0.0 mm 107.00 W/m2
09:55 4.2 °C 2.2 °C 1015.3 hPa South 11.1 km/h 11.1 km/h 87% 0.0 mm 114.00 W/m2
10:00 4.3 °C 2.3 °C 1015.3 hPa South 11.1 km/h 11.1 km/h 87% 0.0 mm 116.00 W/m2
10:05 4.4 °C 2.4 °C 1015.3 hPa South 13.0 km/h 13.0 km/h 87% 0.0 mm 120.00 W/m2
10:10 4.4 °C 2.4 °C 1015.2 hPa South 13.0 km/h 13.0 km/h 87% 0.0 mm 128.00 W/m2
10:15 4.5 °C 2.3 °C 1015.2 hPa South 13.0 km/h 13.0 km/h 86% 0.0 mm 135.00 W/m2
10:20 4.6 °C 2.4 °C 1015.1 hPa South 13.0 km/h 13.0 km/h 86% 0.0 mm 135.00 W/m2
10:25 4.7 °C 2.6 °C 1015.1 hPa South 13.0 km/h 13.0 km/h 86% 0.0 mm 137.00 W/m2
10:30 4.8 °C 2.7 °C 1015.0 hPa South 13.0 km/h 13.0 km/h 86% 0.0 mm 144.00 W/m2
10:35 4.9 °C 2.6 °C 1015.0 hPa South 14.8 km/h 14.8 km/h 85% 0.0 mm 146.00 W/m2
10:40 4.9 °C 2.6 °C 1015.0 hPa South 14.8 km/h 14.8 km/h 85% 0.0 mm 153.00 W/m2
10:45 4.9 °C 2.6 °C 1015.0 hPa South 14.8 km/h 14.8 km/h 85% 0.0 mm 153.00 W/m2
10:50 4.9 °C 2.6 °C 1015.0 hPa South 14.8 km/h 14.8 km/h 85% 0.0 mm 158.00 W/m2
10:55 5.0 °C 2.5 °C 1015.0 hPa South 14.8 km/h 14.8 km/h 84% 0.0 mm 163.00 W/m2
11:00 5.1 °C 2.6 °C 1015.0 hPa South 14.8 km/h 14.8 km/h 84% 0.0 mm 165.00 W/m2
11:05 5.1 °C 2.6 °C 1014.9 hPa SSW 18.5 km/h 18.5 km/h 84% 0.0 mm 171.00 W/m2
11:10 5.2 °C 2.7 °C 1014.9 hPa SSW 18.5 km/h 18.5 km/h 84% 0.0 mm 178.00 W/m2
11:15 5.2 °C 2.6 °C 1014.9 hPa SSW 18.5 km/h 18.5 km/h 83% 0.0 mm 163.00 W/m2
11:20 5.2 °C 2.6 °C 1014.9 hPa SSW 18.5 km/h 18.5 km/h 83% 0.0 mm 146.00 W/m2
11:25 5.3 °C 2.6 °C 1014.9 hPa SSW 18.5 km/h 18.5 km/h 83% 0.0 mm 151.00 W/m2
11:30 5.3 °C 2.4 °C 1014.6 hPa SSW 18.5 km/h 18.5 km/h 82% 0.0 mm 160.00 W/m2
11:35 5.3 °C 2.3 °C 1014.7 hPa South 20.4 km/h 20.4 km/h 81% 0.0 mm 167.00 W/m2
11:40 5.3 °C 2.1 °C 1014.5 hPa South 20.4 km/h 20.4 km/h 80% 0.0 mm 176.00 W/m2
11:45 5.3 °C 2.2 °C 1014.4 hPa South 20.4 km/h 20.4 km/h 80% 0.0 mm 172.00 W/m2
11:50 5.4 °C 2.1 °C 1014.4 hPa South 20.4 km/h 20.4 km/h 79% 0.0 mm 169.00 W/m2
11:55 5.4 °C 2.1 °C 1014.3 hPa South 20.4 km/h 20.4 km/h 79% 0.0 mm 169.00 W/m2
12:00 5.5 °C 1.9 °C 1014.3 hPa South 20.4 km/h 20.4 km/h 78% 0.0 mm 178.00 W/m2
12:05 5.6 °C 2.0 °C 1014.3 hPa South 24.1 km/h 24.1 km/h 78% 0.0 mm 181.00 W/m2
12:10 5.7 °C 2.1 °C 1014.1 hPa South 24.1 km/h 24.1 km/h 78% 0.0 mm 185.00 W/m2
12:15 5.8 °C 2.2 °C 1014.1 hPa South 24.1 km/h 24.1 km/h 78% 0.0 mm 181.00 W/m2
12:20 5.8 °C 2.3 °C 1013.9 hPa South 24.1 km/h 24.1 km/h 78% 0.0 mm 169.00 W/m2
12:25 5.9 °C 2.0 °C 1013.7 hPa South 24.1 km/h 24.1 km/h 76% 0.0 mm 171.00 W/m2
12:30 5.9 °C 1.8 °C 1013.6 hPa South 24.1 km/h 24.1 km/h 75% 0.0 mm 190.00 W/m2
12:35 6.0 °C 1.9 °C 1013.6 hPa South 24.1 km/h 24.1 km/h 75% 0.0 mm 211.00 W/m2
12:40 6.1 °C 1.8 °C 1013.5 hPa South 24.1 km/h 24.1 km/h 74% 0.0 mm 227.00 W/m2
12:45 6.2 °C 1.9 °C 1013.4 hPa South 24.1 km/h 24.1 km/h 74% 0.0 mm 262.00 W/m2
12:50 6.4 °C 1.9 °C 1013.3 hPa South 24.1 km/h 24.1 km/h 73% 0.0 mm 246.00 W/m2
12:55 6.5 °C 1.8 °C 1013.2 hPa South 24.1 km/h 24.1 km/h 72% 0.0 mm 250.00 W/m2
13:00 6.6 °C 1.9 °C 1013.1 hPa South 24.1 km/h 24.1 km/h 72% 0.0 mm 225.00 W/m2
13:05 6.6 °C 1.9 °C 1012.9 hPa South 29.6 km/h 29.6 km/h 72% 0.0 mm 207.00 W/m2
13:10 6.6 °C 1.9 °C 1012.9 hPa South 29.6 km/h 29.6 km/h 72% 0.0 mm 211.00 W/m2
13:15 6.6 °C 1.7 °C 1012.7 hPa South 29.6 km/h 29.6 km/h 71% 0.0 mm 213.00 W/m2
13:20 6.7 °C 2.0 °C 1012.6 hPa South 29.6 km/h 29.6 km/h 72% 0.0 mm 190.00 W/m2
Weerstation Beverwaard NL
Compliments of Weather Underground - 2 mb